Hovedside
METAR-TAF:

METAR-TAF

Lufthavner :

Vidsel, Sverige

breddegrad: 65-52N, lengdegrad: 020-08E, høyde over havet: 180 m

Gjeldene værobservasjon

Denne rapporten ble laget for 35 minutter siden, klokken 19:20 UTC
Vind 7 kt fra Sør
Temperatur 17°C
Luftfuktighet 77%
Trykk 1008 hPa
Sikt 10 km eller mer

METAR: ESPE 161920Z AUTO 17007KT 9999 FEW100/// BKN150/// 17/13 Q1008

Tid: 21:55 (19:55 UTC)

Varsel

Denne rapporten ble laget for 8 timer og 35 minutter siden, klokken 11:20 UTC
Varsel gyldig fra 16. klokken 12 UTC til 16. klokken 14 UTC
Vind 12 kt fra Sør
Sikt 10 km eller mer
ingen skyer under 1500 m og ingen bygeskyer

TAF: ESPE 161120Z 1612/1614 18012KT CAVOK RMK MIL

Værobservasjoner og værvarsel for over 4000 flyplasser (METAR- og TAF-rapporter).

Tilgjengelige stasjoner er representert av de røde og gule prikkene på kartet.

Hold musepekeren over prikken for å se navnet på stasjonen.

Klikk så for å se værobservasjoner og -varsler.

For å forandre kartet kan du klikke på den grønne knappen med svart kryss for å zoome inn, på den grønne knappen med strek for å zoome ut, eller på de grønne pilene for å se tilstøtende kart.


METAR-TAF: